createdAt,value
2018-03-17T00:01:24.089Z,7.17
2018-03-17T00:03:52.173Z,9.83
2018-03-17T00:06:20.225Z,9.80
2018-03-17T00:08:48.352Z,7.67
2018-03-17T00:11:16.331Z,7.23
2018-03-17T00:13:44.379Z,7.70
2018-03-17T00:16:12.437Z,6.73
2018-03-17T00:18:40.488Z,6.40
2018-03-17T00:21:09.300Z,9.80
2018-03-17T00:23:37.352Z,10.07
2018-03-17T00:26:05.403Z,6.17
2018-03-17T00:28:33.445Z,9.17
2018-03-17T00:31:02.268Z,6.03
2018-03-17T00:33:30.350Z,6.00
2018-03-17T00:35:58.414Z,6.60
2018-03-17T00:38:27.222Z,8.03
2018-03-17T00:40:55.372Z,8.90
2018-03-17T00:43:24.106Z,9.87
2018-03-17T00:45:52.184Z,11.63
2018-03-17T00:48:20.231Z,7.97
2018-03-17T00:50:48.334Z,9.63
2018-03-17T00:53:16.382Z,7.13
2018-03-17T00:55:44.427Z,8.43
2018-03-17T00:58:12.939Z,7.83
2018-03-17T01:00:41.012Z,10.50
2018-03-17T01:03:09.057Z,7.63
2018-03-17T01:05:37.105Z,8.57
2018-03-17T01:08:05.165Z,6.70
2018-03-17T01:10:33.329Z,7.50
2018-03-17T01:13:01.343Z,9.43
2018-03-17T01:15:29.396Z,6.93
2018-03-17T01:17:57.443Z,6.03
2018-03-17T01:20:26.403Z,7.33
2018-03-17T01:22:55.448Z,10.30
2018-03-17T01:25:23.504Z,6.23
2018-03-17T01:27:51.664Z,12.00
2018-03-17T01:30:19.725Z,4.77
2018-03-17T01:32:48.570Z,8.33
2018-03-17T01:35:16.609Z,7.20
2018-03-17T01:37:44.662Z,12.33
2018-03-17T01:40:12.729Z,13.57
2018-03-17T01:42:40.853Z,11.07
2018-03-17T01:45:09.713Z,16.93
2018-03-17T01:47:37.849Z,15.03
2018-03-17T01:50:06.680Z,9.40
2018-03-17T01:52:34.782Z,17.77
2018-03-17T01:55:02.808Z,19.00
2018-03-17T01:57:31.648Z,18.10
2018-03-17T01:59:59.686Z,14.83
2018-03-17T02:02:27.786Z,20.43
2018-03-17T02:04:55.815Z,12.13
2018-03-17T02:07:23.884Z,8.70
2018-03-17T02:09:51.968Z,11.13
2018-03-17T02:12:20.671Z,9.00
2018-03-17T02:14:48.733Z,10.23
2018-03-17T02:17:16.792Z,10.87
2018-03-17T02:19:44.880Z,10.50
2018-03-17T02:22:13.757Z,9.03
2018-03-17T02:24:42.132Z,7.93
2018-03-17T02:27:10.430Z,11.57
2018-03-17T02:29:38.472Z,12.23
2018-03-17T02:32:06.583Z,11.63
2018-03-17T02:34:34.639Z,12.60
2018-03-17T02:37:02.686Z,14.17
2018-03-17T02:39:30.824Z,14.23
2018-03-17T02:41:58.878Z,16.53
2018-03-17T02:44:27.681Z,13.00
2018-03-17T02:46:55.741Z,15.30
2018-03-17T02:49:23.912Z,15.93
2018-03-17T02:51:51.964Z,15.37
2018-03-17T02:54:20.047Z,10.23
2018-03-17T02:56:48.176Z,10.93
2018-03-17T02:59:16.302Z,10.17
2018-03-17T03:01:44.290Z,14.33
2018-03-17T03:04:12.360Z,14.27
2018-03-17T03:06:41.021Z,14.10
2018-03-17T03:09:09.184Z,14.57
2018-03-17T03:11:37.238Z,12.23
2018-03-17T03:14:05.308Z,16.10
2018-03-17T03:16:33.365Z,11.73
2018-03-17T03:19:01.418Z,10.07
2018-03-17T03:21:29.459Z,8.83
2018-03-17T03:23:57.529Z,9.77
2018-03-17T03:26:26.567Z,10.30
2018-03-17T03:28:55.365Z,9.67
2018-03-17T03:31:23.401Z,7.60
2018-03-17T03:33:51.573Z,8.77
2018-03-17T03:36:19.615Z,10.57
2018-03-17T03:38:48.377Z,9.50
2018-03-17T03:41:17.292Z,11.93
2018-03-17T03:43:45.356Z,12.90
2018-03-17T03:46:14.176Z,10.10
2018-03-17T03:48:42.232Z,12.40
2018-03-17T03:51:10.289Z,11.33
2018-03-17T03:53:38.403Z,15.13
2018-03-17T03:56:07.240Z,12.90
2018-03-17T03:58:35.313Z,11.30
2018-03-17T04:01:03.396Z,11.47
2018-03-17T04:03:31.428Z,10.77
2018-03-17T04:05:59.499Z,10.80
2018-03-17T04:08:27.582Z,13.47
2018-03-17T04:10:55.622Z,9.87
2018-03-17T04:13:24.489Z,8.83
2018-03-17T04:15:52.552Z,10.60
2018-03-17T04:18:20.685Z,10.70
2018-03-17T04:20:49.493Z,9.53
2018-03-17T04:23:18.407Z,9.70
2018-03-17T04:25:46.421Z,12.83
2018-03-17T04:28:14.485Z,12.90
2018-03-17T04:30:42.565Z,14.70
2018-03-17T04:33:10.609Z,11.97
2018-03-17T04:35:38.672Z,11.23
2018-03-17T04:38:06.734Z,12.20
2018-03-17T04:40:34.792Z,11.37
2018-03-17T04:43:02.854Z,10.53
2018-03-17T04:45:30.918Z,10.13
2018-03-17T04:47:58.983Z,12.63
2018-03-17T04:50:27.027Z,10.27
2018-03-17T04:52:55.088Z,11.50
2018-03-17T04:55:24.042Z,14.50
2018-03-17T04:57:52.095Z,12.87
2018-03-17T05:00:20.157Z,10.80
2018-03-17T05:02:48.987Z,11.37
2018-03-17T05:05:17.032Z,15.33
2018-03-17T05:07:45.862Z,15.67
2018-03-17T05:10:13.941Z,11.57
2018-03-17T05:12:41.975Z,13.13
2018-03-17T05:15:10.045Z,13.57
2018-03-17T05:17:38.105Z,11.60
2018-03-17T05:20:06.179Z,12.77
2018-03-17T05:22:34.231Z,10.63
2018-03-17T05:25:02.298Z,10.57
2018-03-17T05:27:30.327Z,13.70
2018-03-17T05:29:58.400Z,10.13
2018-03-17T05:32:27.253Z,12.57
2018-03-17T05:34:55.315Z,15.27
2018-03-17T05:37:23.371Z,14.67
2018-03-17T05:39:51.426Z,15.73
2018-03-17T05:42:19.484Z,16.37
2018-03-17T05:44:47.563Z,14.60
2018-03-17T05:47:15.687Z,15.83
2018-03-17T05:49:44.527Z,14.37
2018-03-17T05:52:12.600Z,15.27
2018-03-17T05:54:41.422Z,17.00
2018-03-17T05:57:09.571Z,19.30
2018-03-17T05:59:38.388Z,15.53
2018-03-17T06:02:06.488Z,17.07
2018-03-17T06:04:36.052Z,15.73
2018-03-17T06:07:04.094Z,19.00
2018-03-17T06:09:32.190Z,18.43
2018-03-17T06:12:00.279Z,18.43
2018-03-17T06:14:28.324Z,17.77
2018-03-17T06:16:57.985Z,21.90
2018-03-17T06:19:26.688Z,20.63
2018-03-17T06:21:54.790Z,20.33
2018-03-17T06:24:22.852Z,27.70
2018-03-17T06:26:52.153Z,30.93
2018-03-17T06:29:20.216Z,25.77
2018-03-17T06:31:48.284Z,27.80
2018-03-17T06:34:16.368Z,27.80
2018-03-17T06:36:44.407Z,25.57
2018-03-17T06:39:12.467Z,27.07
2018-03-17T06:41:40.528Z,26.73
2018-03-17T06:44:09.698Z,30.77
2018-03-17T06:46:38.524Z,27.80
2018-03-17T06:49:06.581Z,27.77
2018-03-17T06:51:35.413Z,29.53
2018-03-17T06:54:03.481Z,27.50
2018-03-17T06:56:32.305Z,28.57
2018-03-17T06:59:00.371Z,25.20
2018-03-17T07:01:29.192Z,26.33
2018-03-17T07:03:57.265Z,25.73
2018-03-17T07:06:26.144Z,28.37
2018-03-17T07:08:54.980Z,32.63
2018-03-17T07:11:23.032Z,27.37
2018-03-17T07:13:51.888Z,25.37
2018-03-17T07:16:19.969Z,25.30
2018-03-17T07:18:48.041Z,27.57
2018-03-17T07:21:16.122Z,23.63
2018-03-17T07:23:44.185Z,22.93
2018-03-17T07:26:12.231Z,26.30
2018-03-17T07:28:40.299Z,23.27
2018-03-17T07:31:08.358Z,27.23
2018-03-17T07:33:36.409Z,24.80
2018-03-17T07:36:05.228Z,27.20
2018-03-17T07:38:33.292Z,22.50
2018-03-17T07:41:02.136Z,22.03
2018-03-17T07:43:30.181Z,23.67
2018-03-17T07:45:59.335Z,25.60
2018-03-17T07:48:27.413Z,26.43
2018-03-17T07:50:55.568Z,27.67
2018-03-17T07:53:23.621Z,29.43
2018-03-17T07:55:52.454Z,27.93
2018-03-17T07:58:20.515Z,29.03
2018-03-17T08:00:48.567Z,35.20
2018-03-17T08:03:16.651Z,33.07
2018-03-17T08:05:44.692Z,33.63
2018-03-17T08:08:12.792Z,30.40
2018-03-17T08:10:41.007Z,33.63
2018-03-17T08:13:09.099Z,28.93
2018-03-17T08:15:37.160Z,27.23
2018-03-17T08:18:05.210Z,25.37
2018-03-17T08:20:33.282Z,27.70
2018-03-17T08:23:01.442Z,26.60
2018-03-17T08:25:29.494Z,35.23
2018-03-17T08:27:58.330Z,34.00
2018-03-17T08:30:27.167Z,36.37
2018-03-17T08:32:55.237Z,39.67
2018-03-17T08:35:23.319Z,35.10
2018-03-17T08:37:52.296Z,33.13
2018-03-17T08:40:20.364Z,33.20
2018-03-17T08:42:48.433Z,35.13
2018-03-17T08:45:16.508Z,33.53
2018-03-17T08:47:44.589Z,33.07
2018-03-17T08:50:12.694Z,36.27
2018-03-17T08:52:40.745Z,38.00
2018-03-17T08:55:08.820Z,37.07
2018-03-17T08:57:36.876Z,41.50
2018-03-17T09:00:05.703Z,40.17
2018-03-17T09:02:33.774Z,47.87
2018-03-17T09:05:01.861Z,43.10
2018-03-17T09:07:29.898Z,38.00
2018-03-17T09:09:58.759Z,43.37
2018-03-17T09:12:26.823Z,38.60
2018-03-17T09:14:55.634Z,38.67
2018-03-17T09:17:23.725Z,38.03
2018-03-17T09:19:51.783Z,34.07
2018-03-17T09:22:21.387Z,34.93
2018-03-17T09:24:49.464Z,36.80
2018-03-17T09:27:17.529Z,37.07
2018-03-17T09:29:45.600Z,38.53
2018-03-17T09:32:13.701Z,48.23
2018-03-17T09:34:41.759Z,56.03
2018-03-17T09:37:10.812Z,52.40
2018-03-17T09:39:38.868Z,51.80
2018-03-17T09:42:06.923Z,45.00
2018-03-17T09:44:35.065Z,39.27
2018-03-17T09:47:03.233Z,40.43
2018-03-17T09:49:31.477Z,40.43
2018-03-17T09:51:59.528Z,45.37
2018-03-17T09:54:27.612Z,45.27
2018-03-17T09:56:56.452Z,43.47
2018-03-17T09:59:24.573Z,39.10
2018-03-17T10:01:52.725Z,39.10
2018-03-17T10:04:20.838Z,37.80
2018-03-17T10:06:48.894Z,38.20
2018-03-17T10:09:16.962Z,39.43
2018-03-17T10:11:45.053Z,42.87
2018-03-17T10:14:13.222Z,39.27
2018-03-17T10:16:41.345Z,40.87
2018-03-17T10:19:09.372Z,39.63
2018-03-17T10:21:38.186Z,38.00
2018-03-17T10:24:06.240Z,37.37
2018-03-17T10:26:34.412Z,42.73
2018-03-17T10:29:02.469Z,47.33
2018-03-17T10:31:30.542Z,40.77
2018-03-17T10:33:58.981Z,37.10
2018-03-17T10:36:27.040Z,40.03
2018-03-17T10:38:55.096Z,37.47
2018-03-17T10:41:23.155Z,38.27
2018-03-17T10:43:51.968Z,37.60
2018-03-17T10:46:20.053Z,38.83
2018-03-17T10:48:48.098Z,39.20
2018-03-17T10:51:16.157Z,36.80
2018-03-17T10:53:44.203Z,37.20
2018-03-17T10:56:12.315Z,37.57
2018-03-17T10:58:40.384Z,36.83
2018-03-17T11:01:14.049Z,37.73
2018-03-17T11:03:42.100Z,35.47
2018-03-17T11:06:10.174Z,41.03
2018-03-17T11:08:38.220Z,39.77
2018-03-17T11:11:07.135Z,40.00
2018-03-17T11:13:36.072Z,37.93
2018-03-17T11:16:04.128Z,39.77
2018-03-17T11:18:32.206Z,41.00
2018-03-17T11:21:01.025Z,40.10
2018-03-17T11:23:29.084Z,41.33
2018-03-17T11:25:58.062Z,39.10
2018-03-17T11:28:26.163Z,38.33
2018-03-17T11:30:54.264Z,38.77
2018-03-17T11:33:22.325Z,47.87
2018-03-17T11:35:50.388Z,41.43
2018-03-17T11:38:19.258Z,37.93
2018-03-17T11:40:47.289Z,42.70
2018-03-17T11:43:15.357Z,40.80
2018-03-17T11:45:43.391Z,41.77
2018-03-17T11:48:11.471Z,39.27
2018-03-17T11:50:39.623Z,45.17
2018-03-17T11:53:07.772Z,40.97
2018-03-17T11:55:35.872Z,38.23
2018-03-17T11:58:04.068Z,35.20
2018-03-17T12:00:32.136Z,40.53
2018-03-17T12:03:00.213Z,37.50
2018-03-17T12:05:28.273Z,37.30
2018-03-17T12:07:56.344Z,39.93
2018-03-17T12:10:24.422Z,36.93
2018-03-17T12:12:53.249Z,36.73
2018-03-17T12:15:21.334Z,37.47
2018-03-17T12:17:49.379Z,40.03
2018-03-17T12:20:18.319Z,43.20
2018-03-17T12:22:47.211Z,41.43
2018-03-17T12:25:15.260Z,43.63
2018-03-17T12:27:43.452Z,42.57
2018-03-17T12:30:11.907Z,41.27
2018-03-17T12:32:40.132Z,39.50
2018-03-17T12:35:08.200Z,40.50
2018-03-17T12:37:36.266Z,41.20
2018-03-17T12:40:04.344Z,39.60
2018-03-17T12:42:32.415Z,48.83
2018-03-17T12:45:00.477Z,44.70
2018-03-17T12:47:28.549Z,51.33
2018-03-17T12:49:56.632Z,54.30
2018-03-17T12:52:24.748Z,50.43
2018-03-17T12:54:52.820Z,46.50
2018-03-17T12:57:20.889Z,46.50
2018-03-17T12:59:48.937Z,44.00
2018-03-17T13:02:17.004Z,43.33
2018-03-17T13:04:45.086Z,41.90
2018-03-17T13:07:13.165Z,41.20
2018-03-17T13:09:41.221Z,47.27
2018-03-17T13:12:09.284Z,45.77
2018-03-17T13:14:37.370Z,44.00
2018-03-17T13:17:05.454Z,40.43
2018-03-17T13:19:33.540Z,41.93
2018-03-17T13:22:02.691Z,55.03
2018-03-17T13:24:30.765Z,41.57
2018-03-17T13:27:10.517Z,52.80
2018-03-17T13:29:38.583Z,52.73
2018-03-17T13:35:10.792Z,44.77
2018-03-17T13:37:38.844Z,41.13
2018-03-17T13:40:19.452Z,47.47
2018-03-17T13:42:47.528Z,40.93
2018-03-17T13:45:15.624Z,43.83
2018-03-17T13:47:43.681Z,42.30
2018-03-17T13:50:12.530Z,43.83
2018-03-17T13:52:40.580Z,44.93
2018-03-17T13:55:08.651Z,41.00
2018-03-17T13:57:37.470Z,43.03
2018-03-17T14:00:05.529Z,47.20
2018-03-17T14:02:34.343Z,45.50
2018-03-17T14:05:03.185Z,48.13
2018-03-17T14:07:31.295Z,44.27
2018-03-17T14:10:01.593Z,44.60
2018-03-17T14:12:30.207Z,41.73
2018-03-17T14:14:59.348Z,43.93
2018-03-17T14:17:27.391Z,44.10
2018-03-17T14:19:55.486Z,42.73
2018-03-17T14:22:23.541Z,45.10
2018-03-17T14:24:51.591Z,46.37
2018-03-17T14:27:20.432Z,46.07
2018-03-17T14:29:48.499Z,45.10
2018-03-17T14:32:16.555Z,45.17
2018-03-17T14:34:45.394Z,41.47
2018-03-17T14:37:13.464Z,40.13
2018-03-17T14:39:41.526Z,42.77
2018-03-17T14:42:10.344Z,44.30
2018-03-17T14:44:38.433Z,43.70
2018-03-17T14:47:07.222Z,42.43
2018-03-17T14:49:35.467Z,44.27
2018-03-17T14:52:05.043Z,41.33
2018-03-17T14:54:33.128Z,41.43
2018-03-17T14:57:01.185Z,41.23
2018-03-17T14:59:30.024Z,38.77
2018-03-17T15:01:58.800Z,45.40
2018-03-17T15:04:26.900Z,39.53
2018-03-17T15:06:55.742Z,39.17
2018-03-17T15:09:23.801Z,38.93
2018-03-17T15:11:51.869Z,37.93
2018-03-17T15:14:19.948Z,36.37
2018-03-17T15:16:47.993Z,39.73
2018-03-17T15:19:16.052Z,41.53
2018-03-17T15:21:44.115Z,37.80
2018-03-17T15:24:12.172Z,44.70
2018-03-17T15:26:41.008Z,41.47
2018-03-17T15:29:09.379Z,40.07
2018-03-17T15:31:37.436Z,37.27
2018-03-17T15:34:05.479Z,38.17
2018-03-17T15:36:33.536Z,38.63
2018-03-17T15:39:01.610Z,40.63
2018-03-17T15:41:29.680Z,44.93
2018-03-17T15:43:57.733Z,36.27
2018-03-17T15:46:25.810Z,37.90
2018-03-17T15:48:53.864Z,66.93
2018-03-17T15:51:21.922Z,35.47
2018-03-17T15:53:49.965Z,41.13
2018-03-17T15:56:18.032Z,39.87
2018-03-17T15:58:46.084Z,38.43
2018-03-17T16:01:14.146Z,37.20
2018-03-17T16:03:42.473Z,38.80
2018-03-17T16:06:10.564Z,35.83
2018-03-17T16:08:38.619Z,38.63
2018-03-17T16:11:06.787Z,36.13
2018-03-17T16:13:34.848Z,35.37
2018-03-17T16:16:03.670Z,37.10
2018-03-17T16:18:31.718Z,32.50
2018-03-17T16:20:59.787Z,36.23
2018-03-17T16:23:27.867Z,32.57
2018-03-17T16:25:56.153Z,35.47
2018-03-17T16:28:24.211Z,37.00
2018-03-17T16:30:54.222Z,34.93
2018-03-17T16:33:23.194Z,33.67
2018-03-17T16:35:51.255Z,39.57
2018-03-17T16:38:19.355Z,34.53
2018-03-17T16:40:47.441Z,35.20
2018-03-17T16:43:15.738Z,35.93
2018-03-17T16:45:44.772Z,36.13
2018-03-17T16:48:13.446Z,41.43
2018-03-17T16:50:42.494Z,36.43
2018-03-17T16:53:11.620Z,36.57
2018-03-17T16:55:39.752Z,36.73
2018-03-17T16:58:07.958Z,37.23
2018-03-17T17:00:37.245Z,34.00
2018-03-17T17:03:05.363Z,33.60
2018-03-17T17:05:33.932Z,37.70
2018-03-17T17:08:03.973Z,37.07
2018-03-17T17:10:33.274Z,33.47
2018-03-17T17:13:03.259Z,34.00
2018-03-17T17:15:34.861Z,31.97
2018-03-17T17:18:05.504Z,36.50
2018-03-17T17:20:33.577Z,30.63
2018-03-17T17:23:01.628Z,32.60
2018-03-17T17:25:29.751Z,44.00
2018-03-17T17:27:58.136Z,34.13
2018-03-17T17:30:26.242Z,40.33
2018-03-17T17:32:54.300Z,40.77
2018-03-17T17:35:22.446Z,40.10
2018-03-17T17:37:50.532Z,47.33
2018-03-17T17:40:18.931Z,41.67
2018-03-17T17:42:47.600Z,34.03
2018-03-17T17:45:16.440Z,36.17
2018-03-17T17:47:44.500Z,42.13
2018-03-17T17:50:12.571Z,36.00
2018-03-17T17:52:41.409Z,31.37
2018-03-17T17:55:09.465Z,35.73
2018-03-17T17:57:37.532Z,32.63
2018-03-17T18:00:06.373Z,34.10
2018-03-17T18:02:34.448Z,33.53
2018-03-17T18:05:02.865Z,33.73
2018-03-17T18:07:30.998Z,31.33
2018-03-17T18:10:00.177Z,32.53
2018-03-17T18:12:28.336Z,33.67
2018-03-17T18:14:56.387Z,29.17
2018-03-17T18:17:24.736Z,28.57
2018-03-17T18:19:52.839Z,30.03
2018-03-17T18:22:20.886Z,28.87
2018-03-17T18:24:48.970Z,26.80
2018-03-17T18:27:17.082Z,28.43
2018-03-17T18:29:45.921Z,31.00
2018-03-17T18:32:14.756Z,32.73
2018-03-17T18:34:42.830Z,29.87
2018-03-17T18:37:11.223Z,27.33
2018-03-17T18:39:39.287Z,27.77
2018-03-17T18:42:07.365Z,27.37
2018-03-17T18:44:36.220Z,27.90
2018-03-17T18:47:04.285Z,28.93
2018-03-17T18:49:32.360Z,29.93
2018-03-17T18:52:01.796Z,29.27
2018-03-17T18:54:29.834Z,29.73
2018-03-17T18:56:58.647Z,29.00
2018-03-17T18:59:27.475Z,27.10
2018-03-17T19:01:55.540Z,27.10
2018-03-17T19:04:23.603Z,26.07
2018-03-17T19:06:51.736Z,28.53
2018-03-17T19:09:19.791Z,27.73
2018-03-17T19:11:47.882Z,29.93
2018-03-17T19:14:15.938Z,29.97
2018-03-17T19:16:44.087Z,29.67
2018-03-17T19:19:12.152Z,30.10
2018-03-17T19:21:40.268Z,27.27
2018-03-17T19:24:09.091Z,30.97
2018-03-17T19:26:37.157Z,32.83
2018-03-17T19:29:05.973Z,28.57
2018-03-17T19:31:34.046Z,28.27
2018-03-17T19:34:02.873Z,30.37
2018-03-17T19:36:30.944Z,28.87
2018-03-17T19:38:59.984Z,29.87
2018-03-17T19:41:28.046Z,31.53
2018-03-17T19:43:56.124Z,32.70
2018-03-17T19:46:24.179Z,30.23
2018-03-17T19:48:52.393Z,30.17
2018-03-17T19:51:20.439Z,32.57
2018-03-17T19:53:48.508Z,30.53
2018-03-17T19:56:16.592Z,29.67
2018-03-17T19:58:44.630Z,31.63
2018-03-17T20:01:12.675Z,29.50
2018-03-17T20:03:40.745Z,34.20
2018-03-17T20:06:08.804Z,32.30
2018-03-17T20:08:37.096Z,31.53
2018-03-17T20:11:06.090Z,32.77
2018-03-17T20:13:34.168Z,37.03
2018-03-17T20:16:02.236Z,30.63
2018-03-17T20:18:30.309Z,34.97
2018-03-17T20:20:58.415Z,38.33
2018-03-17T20:23:26.510Z,31.57
2018-03-17T20:25:54.577Z,33.30
2018-03-17T20:28:22.873Z,33.00
2018-03-17T20:30:50.914Z,32.97
2018-03-17T20:33:19.744Z,34.17
2018-03-17T20:35:47.801Z,33.53
2018-03-17T20:38:16.806Z,34.60
2018-03-17T20:40:45.633Z,35.13
2018-03-17T20:43:13.693Z,41.57
2018-03-17T20:45:42.564Z,32.33
2018-03-17T20:48:10.610Z,36.27
2018-03-17T20:50:38.688Z,34.13
2018-03-17T20:53:06.740Z,40.87
2018-03-17T20:55:34.776Z,35.53
2018-03-17T20:58:02.913Z,34.93
2018-03-17T21:00:30.934Z,35.57
2018-03-17T21:02:58.979Z,35.37
2018-03-17T21:05:27.820Z,33.97
2018-03-17T21:07:55.901Z,35.47
2018-03-17T21:10:24.015Z,38.47
2018-03-17T21:12:52.067Z,35.70
2018-03-17T21:15:20.130Z,33.93
2018-03-17T21:17:48.180Z,35.27
2018-03-17T21:20:16.232Z,34.73
2018-03-17T21:22:44.294Z,34.80
2018-03-17T21:25:12.621Z,35.43
2018-03-17T21:27:40.688Z,35.70
2018-03-17T21:30:08.773Z,35.33
2018-03-17T21:32:36.981Z,35.33
2018-03-17T21:35:05.002Z,43.53
2018-03-17T21:37:33.108Z,38.70
2018-03-17T21:40:01.169Z,41.03
2018-03-17T21:42:29.211Z,37.43
2018-03-17T21:44:57.287Z,40.30
2018-03-17T21:47:25.346Z,42.37
2018-03-17T21:49:53.405Z,38.77
2018-03-17T21:52:21.455Z,39.73
2018-03-17T21:54:49.520Z,40.37
2018-03-17T21:57:17.571Z,34.60
2018-03-17T21:59:45.656Z,32.43
2018-03-17T22:02:13.713Z,35.53
2018-03-17T22:04:42.628Z,39.30
2018-03-17T22:07:10.708Z,42.63
2018-03-17T22:09:39.714Z,38.20
2018-03-17T22:12:07.768Z,37.47
2018-03-17T22:14:35.832Z,34.63
2018-03-17T22:17:04.095Z,32.97
2018-03-17T22:19:32.372Z,36.27
2018-03-17T22:22:01.280Z,36.33
2018-03-17T22:24:30.172Z,34.10
2018-03-17T22:26:58.236Z,32.83
2018-03-17T22:29:26.314Z,33.27
2018-03-17T22:31:54.452Z,36.23
2018-03-17T22:34:22.462Z,37.43
2018-03-17T22:36:51.283Z,34.13
2018-03-17T22:39:20.161Z,31.60
2018-03-17T22:41:48.195Z,32.47
2018-03-17T22:44:19.550Z,34.23
2018-03-17T22:46:47.628Z,34.93
2018-03-17T22:49:15.683Z,33.43
2018-03-17T22:51:44.576Z,33.67
2018-03-17T22:54:12.682Z,38.83
2018-03-17T22:56:40.743Z,34.90
2018-03-17T22:59:09.699Z,32.73
2018-03-17T23:01:37.768Z,39.83
2018-03-17T23:04:05.901Z,34.20
2018-03-17T23:06:34.333Z,33.67
2018-03-17T23:09:03.161Z,34.00
2018-03-17T23:11:31.253Z,34.23
2018-03-17T23:13:59.992Z,32.37
2018-03-17T23:16:28.049Z,33.43
2018-03-17T23:18:56.156Z,31.10
2018-03-17T23:21:24.217Z,33.93
2018-03-17T23:23:52.278Z,31.67
2018-03-17T23:26:20.323Z,34.07
2018-03-17T23:28:49.423Z,38.17
2018-03-17T23:31:18.424Z,37.57
2018-03-17T23:33:46.496Z,33.77
2018-03-17T23:36:14.574Z,33.93
2018-03-17T23:38:42.654Z,37.73
2018-03-17T23:41:10.728Z,33.70
2018-03-17T23:43:38.959Z,37.80
2018-03-17T23:46:07.031Z,32.63
2018-03-17T23:48:35.539Z,35.00
2018-03-17T23:51:04.387Z,33.80
2018-03-17T23:53:32.543Z,34.43
2018-03-17T23:56:02.171Z,33.80
2018-03-17T23:58:30.228Z,33.37
